Time;durP1;ratioP1;P1;durP2;ratioP2;P2;SDS_P1;SDS_P2;PMS_P1;PMS_P2;Temp;Humidity;BMP_temperature;BMP_pressure;BME280_temperature;BME280_humidity;BME280_pressure;Samples;Min_cycle;Max_cycle;Signal;HPM_P1;HPM_P2
2022/11/20 06:42:48;;;;;;;15.93;7.20;;;;;;;6.02;88.16;97499.03;6154222;23;20013;-63
2022/11/20 06:45:13;;;;;;;15.77;6.90;;;;;;;5.87;85.61;97499.00;6181207;23;20023;-64
2022/11/20 06:47:39;;;;;;;17.27;7.10;;;;;;;5.74;85.55;97511.06;6183946;23;20001;-64
2022/11/20 06:50:04;;;;;;;17.40;8.32;;;;;;;5.50;83.34;97508.16;6183512;23;20001;-65
2022/11/20 06:52:29;;;;;;;16.20;7.03;;;;;;;5.35;84.15;97514.28;6158119;23;20004;-65
2022/11/20 06:54:55;;;;;;;13.05;5.85;;;;;;;5.24;85.11;97522.72;6183327;23;19997;-65
2022/11/20 06:57:20;;;;;;;16.90;7.97;;;;;;;5.07;82.58;97530.66;6183247;23;20004;-63
2022/11/20 06:59:46;;;;;;;17.88;8.90;;;;;;;4.66;81.06;97531.22;6181078;23;20013;-64
2022/11/20 07:02:11;;;;;;;16.02;6.88;;;;;;;4.70;83.67;97528.34;6183821;23;20333;-64
2022/11/20 07:04:37;;;;;;;14.43;6.35;;;;;;;4.74;86.26;97529.00;6182962;23;19997;-64
2022/11/20 07:07:02;;;;;;;14.80;6.30;;;;;;;4.72;87.08;97525.69;6158013;23;20008;-64
2022/11/20 07:09:28;;;;;;;12.10;6.00;;;;;;;4.75;88.54;97525.50;6183962;23;20422;-65
2022/11/20 07:11:53;;;;;;;12.73;5.65;;;;;;;4.79;89.29;97526.19;6183205;23;20009;-65
2022/11/20 07:14:19;;;;;;;17.08;7.20;;;;;;;4.71;86.92;97536.97;6181460;23;20005;-65
2022/11/20 07:16:44;;;;;;;16.63;7.45;;;;;;;4.66;87.17;97533.81;6184438;23;20009;-65
2022/11/20 07:19:09;;;;;;;16.02;7.13;;;;;;;4.66;88.00;97537.25;6155903;23;20013;-65
2022/11/20 07:21:35;;;;;;;14.75;6.22;;;;;;;4.70;89.27;97530.09;6183058;23;20011;-64
2022/11/20 07:24:00;;;;;;;14.75;6.90;;;;;;;4.65;88.89;97525.19;6156989;23;20009;-64
2022/11/20 07:26:26;;;;;;;16.08;7.50;;;;;;;4.65;89.11;97529.53;6181789;23;20001;-64
2022/11/20 07:28:51;;;;;;;23.70;10.68;;;;;;;4.55;87.49;97529.22;6182198;23;20013;-64
2022/11/20 07:31:16;;;;;;;22.20;10.32;;;;;;;4.52;87.20;97529.38;6182668;23;20001;-65
2022/11/20 07:33:42;;;;;;;17.70;8.27;;;;;;;4.54;88.26;97530.09;6155317;23;20005;-64
2022/11/20 07:36:07;;;;;;;15.80;7.63;;;;;;;4.59;89.29;97535.91;6181526;23;20009;-65
2022/11/20 07:38:32;;;;;;;15.90;7.50;;;;;;;4.65;90.15;97534.75;6183314;23;20366;-65
2022/11/20 07:41:01;;;;;;;15.15;7.03;;;;;;;4.69;90.49;97531.03;6156804;23;20012;-65
2022/11/20 07:43:27;;;;;;;14.75;7.22;;;;;;;4.69;89.75;97533.63;6157723;23;20025;-65
2022/11/20 07:45:54;;;;;;;14.55;7.03;;;;;;;4.70;89.97;97537.91;6156221;23;20007;-65
2022/11/20 07:48:19;;;;;;;14.75;6.88;;;;;;;4.75;90.14;97535.91;6133434;23;20040;-64
2022/11/20 07:50:45;;;;;;;15.93;7.47;;;;;;;4.74;89.69;97539.41;6157128;23;20137;-65
2022/11/20 07:53:12;;;;;;;13.70;6.45;;;;;;;4.75;89.57;97544.53;6182096;23;20075;-65
2022/11/20 07:55:37;;;;;;;12.65;6.63;;;;;;;4.82;89.76;97537.22;6182849;23;20005;-65
2022/11/20 07:58:02;;;;;;;13.60;6.95;;;;;;;4.88;90.21;97539.47;6157495;23;20385;-65
2022/11/20 08:00:28;;;;;;;13.77;6.90;;;;;;;4.91;90.26;97539.28;6183043;23;20005;-65
2022/11/20 08:02:53;;;;;;;13.90;7.25;;;;;;;4.92;90.31;97548.78;6183083;23;20007;-65
2022/11/20 08:05:19;;;;;;;14.27;6.38;;;;;;;4.90;90.28;97537.63;6183621;23;19997;-65
2022/11/20 08:07:44;;;;;;;13.90;6.30;;;;;;;4.94;90.43;97536.53;6156421;23;20012;-65
2022/11/20 08:10:12;;;;;;;15.63;6.63;;;;;;;4.93;90.25;97539.22;6157590;23;20005;-65
2022/11/20 08:15:28;;;;;;;15.75;6.90;;;;;;;4.95;90.44;97543.38;6140149;23;20088;-65
2022/11/20 08:17:59;;;;;;;13.27;5.88;;;;;;;4.95;90.33;97542.56;6182174;23;20004;-66
2022/11/20 08:20:25;;;;;;;13.57;6.18;;;;;;;4.96;90.38;97541.66;6132398;23;20506;-65
2022/11/20 08:22:50;;;;;;;15.38;7.40;;;;;;;5.00;90.54;97536.19;6182711;23;20031;-64
2022/11/20 08:25:15;;;;;;;15.10;6.63;;;;;;;5.03;90.72;97549.94;6183445;23;20007;-64
2022/11/20 08:27:41;;;;;;;13.68;6.82;;;;;;;5.07;90.67;97541.03;6182981;23;20027;-64
2022/11/20 08:30:07;;;;;;;13.50;7.00;;;;;;;5.14;90.68;97534.56;6183158;23;20031;-65
2022/11/20 08:32:34;;;;;;;15.60;7.82;;;;;;;5.19;90.49;97535.97;6155277;23;20446;-66
2022/11/20 08:35:00;;;;;;;20.92;9.70;;;;;;;5.21;89.05;97535.88;6181654;23;20001;-66
2022/11/20 08:37:25;;;;;;;14.88;7.40;;;;;;;5.26;89.48;97531.25;6183052;23;20031;-67
2022/11/20 08:39:50;;;;;;;16.05;7.75;;;;;;;5.25;88.58;97534.78;6182478;23;20007;-66
2022/11/20 08:42:16;;;;;;;15.30;7.72;;;;;;;5.24;88.32;97538.31;6183395;23;20476;-66
2022/11/20 08:44:42;;;;;;;18.50;8.85;;;;;;;5.23;88.24;97534.06;6181978;23;20009;-66
2022/11/20 08:47:08;;;;;;;15.93;8.45;;;;;;;5.21;87.87;97530.69;6183553;23;20121;-66
2022/11/20 08:49:34;;;;;;;17.40;7.70;;;;;;;5.22;88.04;97532.34;6180918;23;20009;-66
2022/11/20 08:51:59;;;;;;;15.68;7.40;;;;;;;5.20;88.05;97532.47;6183257;23;20338;-66
2022/11/20 08:54:24;;;;;;;14.10;7.00;;;;;;;5.21;88.45;97522.88;6182940;23;20613;-66
2022/11/20 08:56:50;;;;;;;18.00;8.55;;;;;;;5.19;87.98;97533.34;6185126;23;20059;-66
2022/11/20 08:59:15;;;;;;;18.70;9.30;;;;;;;5.19;87.69;97535.13;6133514;23;20064;-67
2022/11/20 09:01:40;;;;;;;16.52;8.07;;;;;;;5.19;88.34;97533.34;6185053;23;20011;-63
2022/11/20 09:04:06;;;;;;;20.75;10.30;;;;;;;5.19;88.19;97540.31;6158380;23;20059;-65
2022/11/20 09:06:31;;;;;;;16.25;8.48;;;;;;;5.21;88.67;97534.13;6183861;23;20459;-66
2022/11/20 09:08:57;;;;;;;17.63;8.15;;;;;;;5.25;89.35;97532.19;6184428;23;20338;-66
2022/11/20 09:11:22;;;;;;;13.57;6.93;;;;;;;5.29;89.11;97531.06;6185600;23;20009;-65
2022/11/20 09:13:47;;;;;;;15.80;7.38;;;;;;;5.32;89.22;97530.91;6158079;23;20001;-64
2022/11/20 09:16:13;;;;;;;12.98;6.60;;;;;;;5.38;89.60;97529.72;6185248;23;20550;-65
2022/11/20 09:18:38;;;;;;;12.85;6.88;;;;;;;5.39;89.80;97521.81;6158536;23;20005;-65
2022/11/20 09:21:06;;;;;;;13.55;6.65;;;;;;;5.44;89.84;97521.56;6184350;23;20009;-65
2022/11/20 09:23:33;;;;;;;13.30;6.65;;;;;;;5.50;89.96;97507.34;6157581;23;20001;-65
2022/11/20 09:26:04;;;;;;;15.43;7.53;;;;;;;5.57;89.89;97496.47;6133753;23;20001;-64
2022/11/20 09:28:30;;;;;;;16.23;7.77;;;;;;;5.58;89.26;97505.13;6184764;23;19997;-64
2022/11/20 09:30:55;;;;;;;16.45;7.75;;;;;;;5.57;88.38;97506.88;6158290;23;20005;-64
2022/11/20 09:33:21;;;;;;;14.07;7.03;;;;;;;5.67;88.25;97501.97;6184275;23;20392;-65
2022/11/20 09:35:46;;;;;;;15.93;7.47;;;;;;;5.82;87.86;97500.22;6183315;23;20395;-66
2022/11/20 09:38:13;;;;;;;14.18;7.57;;;;;;;5.93;87.80;97503.03;6184473;23;20005;-66
2022/11/20 09:40:43;;;;;;;16.00;7.75;;;;;;;5.95;86.74;97508.97;6135032;23;20005;-66
2022/11/20 09:43:21;;;;;;;15.13;7.68;;;;;;;5.90;86.97;97511.84;6133275;23;20016;-65
2022/11/20 09:45:52;;;;;;;15.32;8.02;;;;;;;5.91;87.36;97510.91;6184438;23;20052;-65
2022/11/20 09:48:32;;;;;;;14.15;7.70;;;;;;;5.96;87.33;97515.03;6185030;23;20009;-65
2022/11/20 09:51:35;;;;;;;16.50;8.02;;;;;;;5.94;86.78;97509.91;6184357;23;20059;-65
2022/11/20 09:54:22;;;;;;;13.60;7.05;;;;;;;6.00;86.84;97503.50;6183534;23;20096;-65
2022/11/20 09:56:58;;;;;;;13.98;7.00;;;;;;;6.03;87.36;97511.97;6134827;23;20016;-65
2022/11/20 09:59:27;;;;;;;19.25;8.77;;;;;;;6.01;85.83;97512.97;6157575;23;20005;-65
2022/11/20 10:01:53;;;;;;;17.08;8.30;;;;;;;5.97;86.06;97511.50;6158463;23;20085;-66
2022/11/20 10:04:19;;;;;;;78.85;24.20;;;;;;;5.75;81.29;97511.91;6133418;23;19993;-68
2022/11/20 10:07:02;;;;;;;58.80;20.00;;;;;;;5.81;84.13;97512.38;6132015;23;20334;-65
2022/11/20 10:09:32;;;;;;;29.73;11.65;;;;;;;5.83;85.32;97507.94;6158442;23;20000;-65
2022/11/20 10:12:22;;;;;;;47.42;15.32;;;;;;;5.88;85.76;97508.50;6155994;23;20358;-64
2022/11/20 10:14:57;;;;;;;35.80;14.27;;;;;;;5.86;85.00;97497.34;6155029;23;20005;-63
2022/11/20 10:17:28;;;;;;;22.98;11.15;;;;;;;5.89;85.59;97497.16;6134252;23;20079;-63
2022/11/20 10:20:31;;;;;;;19.83;9.27;;;;;;;5.92;86.31;97494.41;6183483;23;20089;-65
2022/11/20 10:23:05;;;;;;;16.65;8.77;;;;;;;6.01;86.62;97494.75;6149698;23;20001;-65
2022/11/20 10:25:39;;;;;;;19.58;10.63;;;;;;;5.95;84.87;97488.16;6182523;23;20443;-65
2022/11/20 10:28:16;;;;;;;22.60;11.75;;;;;;;5.96;83.03;97494.22;6133035;23;20016;-66
2022/11/20 10:30:43;;;;;;;18.35;10.30;;;;;;;5.94;83.37;97486.47;6133525;23;20394;-66
2022/11/20 10:33:20;;;;;;;19.70;10.30;;;;;;;5.98;83.10;97489.72;6131443;23;20005;-67
2022/11/20 10:35:51;;;;;;;19.33;9.75;;;;;;;5.87;81.91;97491.19;6131632;23;20005;-65
2022/11/20 10:38:36;;;;;;;21.20;10.57;;;;;;;5.74;80.83;97490.25;6133399;23;20013;-67
2022/11/20 10:47:05;;;;;;;19.80;8.93;;;;;;;6.02;83.47;97473.00;6097068;23;20060;-66
2022/11/20 10:49:30;;;;;;;19.33;10.60;;;;;;;5.89;80.55;97468.53;6096894;23;20014;-66
2022/11/20 10:52:17;;;;;;;18.27;9.65;;;;;;;5.82;80.02;97471.59;6070859;23;20006;-64
2022/11/20 10:55:10;;;;;;;18.65;10.27;;;;;;;5.84;80.21;97465.34;6119648;23;20006;-63
2022/11/20 10:58:03;;;;;;;21.13;13.57;;;;;;;5.99;79.76;97462.75;6099260;23;20010;-64
2022/11/20 11:00:31;;;;;;;19.63;11.63;;;;;;;6.00;79.35;97464.47;6119703;23;20009;-64
2022/11/20 11:03:02;;;;;;;22.17;12.68;;;;;;;6.01;79.13;97461.75;6070390;23;20052;-64
2022/11/20 11:05:41;;;;;;;26.77;15.85;;;;;;;5.86;80.45;97458.31;6120887;23;20041;-64
2022/11/20 11:08:14;;;;;;;28.65;16.67;;;;;;;5.92;83.16;97459.69;6073097;23;20013;-65
2022/11/20 11:10:52;;;;;;;25.13;14.18;;;;;;;5.88;82.56;97451.25;6072496;23;20006;-64
2022/11/20 11:13:21;;;;;;;19.15;9.45;;;;;;;5.90;83.30;97454.56;6071992;23;20072;-64
2022/11/20 11:15:46;;;;;;;12.02;6.05;;;;;;;5.87;83.62;97449.56;6174697;23;20116;-64
2022/11/20 11:18:32;;;;;;;11.85;5.80;;;;;;;5.94;83.81;97456.06;6183220;23;20013;-64
2022/11/20 11:20:59;;;;;;;10.82;5.10;;;;;;;6.07;83.58;97463.16;6182105;23;19997;-64
2022/11/20 11:23:44;;;;;;;26.33;11.43;;;;;;;5.70;81.60;97551.22;6156228;23;20005;-64
2022/11/20 11:26:20;;;;;;;25.25;13.48;;;;;;;4.95;80.99;97526.97;6181786;23;20009;-64
2022/11/20 11:29:03;;;;;;;17.27;9.93;;;;;;;4.57;82.26;97508.31;6108138;23;20100;-64
2022/11/20 11:31:29;;;;;;;20.33;9.80;;;;;;;4.40;82.59;97499.69;6132705;23;20003;-64
2022/11/20 11:34:10;;;;;;;18.15;10.32;;;;;;;4.35;83.99;97499.13;6182280;23;20001;-66
2022/11/20 11:36:35;;;;;;;16.52;9.73;;;;;;;4.31;82.69;97504.59;6156796;23;20107;-66
2022/11/20 11:39:00;;;;;;;15.90;8.85;;;;;;;4.22;83.50;97501.53;6131624;23;20004;-64
2022/11/20 11:41:31;;;;;;;14.18;8.15;;;;;;;4.26;83.96;97510.00;6156569;23;20094;-66
2022/11/20 11:46:55;;;;;;;29.58;15.30;;;;;;;4.44;82.49;97501.22;6139946;23;20047;-66
2022/11/20 11:49:21;;;;;;;21.10;10.15;;;;;;;4.39;83.11;97503.22;6130751;23;20001;-65
2022/11/20 11:52:07;;;;;;;15.95;8.02;;;;;;;4.48;83.06;97497.53;6155991;23;20075;-66
2022/11/20 11:54:59;;;;;;;30.98;14.68;;;;;;;4.60;82.44;97483.03;6155204;23;20005;-66
2022/11/20 11:57:37;;;;;;;15.05;8.00;;;;;;;4.66;82.62;97485.28;6156054;23;20015;-66
2022/11/20 12:00:04;;;;;;;12.77;6.60;;;;;;;4.82;81.80;97476.59;6182858;23;20071;-65
2022/11/20 12:02:34;;;;;;;16.75;8.68;;;;;;;4.92;82.02;97478.63;6181858;23;20005;-66
2022/11/20 12:05:08;;;;;;;43.20;19.52;;;;;;;4.99;81.81;97482.53;6155387;23;20005;-65
2022/11/20 12:08:04;;;;;;;53.53;22.73;;;;;;;5.00;81.13;97484.19;6133532;23;20027;-66
2022/11/20 12:10:32;;;;;;;20.42;10.55;;;;;;;4.85;81.53;97495.50;6160292;23;20001;-65
2022/11/20 12:13:25;;;;;;;15.15;8.27;;;;;;;4.81;83.40;97503.53;6182662;23;20011;-65
2022/11/20 12:15:51;;;;;;;14.70;7.25;;;;;;;4.86;82.11;97497.16;6155076;23;20457;-65
2022/11/20 12:18:21;;;;;;;14.32;7.85;;;;;;;4.84;82.14;97491.19;6132300;23;20084;-67
2022/11/20 12:20:58;;;;;;;16.27;8.23;;;;;;;4.73;82.18;97497.00;6156062;23;20005;-66
2022/11/20 12:23:29;;;;;;;15.63;7.65;;;;;;;4.74;82.66;97508.22;6156613;23;20016;-66
2022/11/20 12:25:56;;;;;;;15.68;8.50;;;;;;;4.73;83.29;97501.38;6155893;23;20009;-66
2022/11/20 12:28:21;;;;;;;14.32;7.15;;;;;;;4.85;84.02;97490.28;6131229;23;20509;-66
2022/11/20 12:31:14;;;;;;;13.52;7.10;;;;;;;5.07;85.18;97487.28;6183856;23;20024;-66
2022/11/20 12:33:49;;;;;;;11.85;6.90;;;;;;;5.20;82.67;97475.25;6156381;23;20040;-66
2022/11/20 12:36:45;;;;;;;12.77;6.45;;;;;;;5.26;81.83;97471.44;6133382;23;20009;-67
2022/11/20 12:39:16;;;;;;;12.38;6.00;;;;;;;5.17;81.95;97466.81;6116727;23;20001;-66
2022/11/20 12:45:09;;;;;;;10.70;5.15;;;;;;;5.46;81.39;97459.88;6141413;23;20016;-65
2022/11/20 12:47:43;;;;;;;12.15;5.03;;;;;;;5.50;80.96;97460.53;6184043;23;19997;-66
2022/11/20 12:50:17;;;;;;;13.35;6.20;;;;;;;5.35;80.71;97463.09;6184876;23;20027;-66
2022/11/20 12:52:47;;;;;;;10.90;4.70;;;;;;;5.10;81.34;97461.13;6157321;23;20000;-66
2022/11/20 12:55:28;;;;;;;44.67;19.45;;;;;;;5.04;82.86;97463.25;6109533;23;20016;-67
2022/11/20 12:57:58;;;;;;;10.60;5.43;;;;;;;4.94;82.64;97461.16;6134195;23;20104;-67
2022/11/20 13:00:24;;;;;;;14.40;8.25;;;;;;;4.93;82.80;97462.09;6134773;23;20457;-67
2022/11/20 13:03:23;;;;;;;12.25;6.28;;;;;;;4.93;83.44;97462.09;6132319;23;20029;-67
2022/11/20 13:06:10;;;;;;;12.90;6.50;;;;;;;4.93;83.96;97471.66;6184206;23;20001;-67
2022/11/20 13:08:38;;;;;;;14.80;8.25;;;;;;;4.91;83.86;97457.91;6158554;23;20005;-67
2022/11/20 13:11:30;;;;;;;11.55;5.60;;;;;;;4.90;83.72;97462.28;6158258;23;20354;-67
2022/11/20 13:13:58;;;;;;;;;;;;;;;4.88;84.45;97448.50;6136185;23;20001;-67
2022/11/20 13:16:23;;;;;;;11.05;6.22;;;;;;;4.85;84.71;97459.13;6184832;23;20398;-66
2022/11/20 13:18:49;;;;;;;12.70;6.35;;;;;;;4.83;84.90;97460.13;6183585;23;20028;-67
2022/11/20 13:21:17;;;;;;;11.77;5.93;;;;;;;4.78;85.19;97459.53;6158193;23;20423;-67
2022/11/20 13:23:43;;;;;;;9.07;4.43;;;;;;;4.77;85.81;97466.50;6155664;23;20009;-66
2022/11/20 13:26:22;;;;;;;22.30;8.38;;;;;;;4.82;86.46;97454.09;6184527;23;20005;-66
2022/11/20 13:28:48;;;;;;;26.50;12.88;;;;;;;4.85;85.56;97459.13;6132809;23;20108;-66
2022/11/20 13:31:29;;;;;;;342.83;87.53;;;;;;;4.74;85.79;97464.91;6132992;23;20470;-66
2022/11/20 13:33:55;;;;;;;133.32;50.60;;;;;;;4.74;86.88;97459.69;6156902;23;20008;-67
2022/11/20 13:36:23;;;;;;;58.42;26.85;;;;;;;4.74;86.68;97466.66;6158028;23;20009;-67
2022/11/20 13:38:55;;;;;;;17.50;10.68;;;;;;;4.74;86.98;97458.88;6183863;23;20378;-67
2022/11/20 13:41:35;;;;;;;11.80;5.95;;;;;;;4.69;86.44;97464.34;6157401;23;20001;-67
2022/11/20 13:44:15;;;;;;;28.92;14.48;;;;;;;4.64;87.19;97471.53;6158518;23;20001;-66
2022/11/20 13:46:43;;;;;;;13.75;7.25;;;;;;;4.58;86.55;97476.25;6132785;23;20308;-67
2022/11/20 13:49:17;;;;;;;14.68;8.27;;;;;;;4.48;88.00;97475.94;6133087;23;20335;-67
2022/11/20 13:51:44;;;;;;;17.40;9.80;;;;;;;4.52;87.74;97470.47;6135489;23;20016;-67
2022/11/20 13:54:22;;;;;;;13.45;7.82;;;;;;;4.50;87.83;97474.91;6132924;23;19997;-67
2022/11/20 13:57:12;;;;;;;11.85;6.15;;;;;;;4.45;87.74;97473.50;6158267;23;20084;-66
2022/11/20 13:59:57;;;;;;;15.25;8.15;;;;;;;4.45;88.56;97470.91;6157877;23;20036;-67
2022/11/20 14:02:23;;;;;;;13.90;6.72;;;;;;;4.45;88.72;97469.13;6184754;23;20005;-66
2022/11/20 14:04:52;;;;;;;13.75;8.23;;;;;;;4.46;88.87;97463.00;6133583;23;20477;-66
2022/11/20 14:07:22;;;;;;;15.93;8.35;;;;;;;4.48;88.59;97458.59;6133577;23;20339;-66
2022/11/20 14:09:52;;;;;;;13.55;7.88;;;;;;;4.56;92.46;97452.13;6133449;23;20371;-64
2022/11/20 14:12:19;;;;;;;14.32;7.35;;;;;;;4.94;92.93;97453.38;6158035;23;20001;-66
2022/11/20 14:14:50;;;;;;;14.63;7.32;;;;;;;4.91;91.83;97453.53;6157741;23;20004;-66
2022/11/20 14:17:22;;;;;;;14.32;7.45;;;;;;;4.84;89.42;97456.59;6134304;23;20067;-66
2022/11/20 14:19:49;;;;;;;17.35;7.82;;;;;;;4.82;88.55;97461.88;6158505;23;20028;-65
2022/11/20 14:22:26;;;;;;;13.55;7.68;;;;;;;4.78;88.21;97462.97;6133617;23;20027;-65
2022/11/20 14:25:04;;;;;;;11.82;6.30;;;;;;;4.73;88.06;97470.19;6157498;23;20044;-66
2022/11/20 14:27:33;;;;;;;13.15;6.28;;;;;;;4.72;88.42;97468.53;6183782;23;20005;-67
2022/11/20 14:30:00;;;;;;;13.80;6.13;;;;;;;4.69;87.99;97463.50;6133109;23;20454;-66
2022/11/20 14:32:26;;;;;;;16.10;7.13;;;;;;;4.67;88.38;97460.97;6133810;23;20001;-66
2022/11/20 14:34:51;;;;;;;14.45;7.05;;;;;;;4.66;88.00;97456.72;6133061;23;20495;-65
2022/11/20 14:37:20;;;;;;;11.35;5.28;;;;;;;4.62;88.21;97467.38;6157973;23;20012;-65
2022/11/20 14:39:53;;;;;;;11.63;5.85;;;;;;;4.58;88.76;97468.47;6133360;23;20008;-66
2022/11/20 14:42:23;;;;;;;13.15;6.13;;;;;;;4.53;88.50;97464.34;6157454;23;20005;-66
2022/11/20 14:44:49;;;;;;;11.45;6.35;;;;;;;4.52;88.60;97456.66;6183631;23;19997;-66
2022/11/20 14:47:21;;;;;;;9.82;5.63;;;;;;;4.49;89.21;97457.66;6157200;23;20009;-66
2022/11/20 14:49:46;;;;;;;13.70;5.78;;;;;;;4.46;89.05;97452.63;6158049;23;20016;-66
2022/11/20 14:52:11;;;;;;;10.65;4.82;;;;;;;4.47;89.33;97462.13;6157008;23;20001;-66
2022/11/20 14:54:47;;;;;;;14.13;6.95;;;;;;;4.46;89.16;97463.00;6183773;23;20003;-66
2022/11/20 14:57:26;;;;;;;14.75;6.90;;;;;;;4.48;89.05;97463.78;6157277;23;20092;-66
2022/11/20 15:00:04;;;;;;;15.32;8.20;;;;;;;4.47;89.14;97459.53;6157427;23;20009;-66
2022/11/20 15:02:29;;;;;;;20.23;10.38;;;;;;;4.46;89.57;97459.59;6133609;23;20001;-66
2022/11/20 15:04:59;;;;;;;16.23;8.85;;;;;;;4.44;89.43;97464.88;6157865;23;20043;-66
2022/11/20 15:07:28;;;;;;;16.70;9.07;;;;;;;4.48;89.80;97465.53;6183824;23;20001;-66
2022/11/20 15:10:07;;;;;;;16.88;7.80;;;;;;;4.50;89.35;97463.69;6183980;23;20009;-66
2022/11/20 15:12:34;;;;;;;15.68;8.10;;;;;;;4.49;89.45;97460.25;6183387;23;20005;-66
2022/11/20 15:15:00;;;;;;;14.75;7.68;;;;;;;4.48;89.17;97448.19;6132279;23;19997;-66
2022/11/20 15:17:26;;;;;;;25.98;13.48;;;;;;;4.50;89.28;97443.75;6133165;23;20016;-66
2022/11/20 15:19:52;;;;;;;19.05;11.20;;;;;;;4.52;89.18;97444.50;6133155;23;20009;-66
2022/11/20 15:22:17;;;;;;;21.30;12.75;;;;;;;4.53;89.22;97453.97;6132672;23;20466;-66
2022/11/20 15:24:42;;;;;;;22.95;14.15;;;;;;;4.50;89.15;97454.13;6183802;23;20013;-66
2022/11/20 15:27:09;;;;;;;17.67;10.02;;;;;;;4.51;89.16;97455.00;6157055;23;20005;-66
2022/11/20 15:29:34;;;;;;;15.55;8.45;;;;;;;4.52;89.99;97454.88;6156945;23;20004;-66
2022/11/20 15:31:59;;;;;;;12.07;5.95;;;;;;;4.51;89.81;97460.19;6157031;23;20004;-67
2022/11/20 15:34:26;;;;;;;11.23;5.57;;;;;;;4.52;89.73;97456.66;6157043;23;20415;-66
2022/11/20 15:36:52;;;;;;;12.43;6.63;;;;;;;4.53;89.81;97456.56;6157522;23;20011;-66
2022/11/20 15:39:18;;;;;;;15.63;8.55;;;;;;;4.54;89.66;97434.00;6183058;23;20001;-66
2022/11/20 15:41:43;;;;;;;16.05;8.48;;;;;;;4.55;89.77;97430.50;6156819;23;20051;-66
2022/11/20 15:44:08;;;;;;;15.70;9.02;;;;;;;4.51;89.63;97426.41;6157057;23;20015;-66
2022/11/20 15:46:40;;;;;;;14.30;7.55;;;;;;;4.54;89.60;97439.22;6157837;23;20005;-66
2022/11/20 15:49:05;;;;;;;73.05;29.70;;;;;;;4.52;90.10;97426.31;6158571;23;20001;-66
2022/11/20 15:51:35;;;;;;;48.83;24.27;;;;;;;4.55;90.00;97424.50;6133205;23;20011;-66
2022/11/20 15:54:01;;;;;;;26.35;15.13;;;;;;;4.55;89.92;97429.69;6157110;23;20533;-66
2022/11/20 15:56:27;;;;;;;22.02;13.43;;;;;;;4.56;90.00;97420.97;6157606;23;20009;-66
2022/11/20 15:58:52;;;;;;;17.95;11.15;;;;;;;4.56;90.38;97426.97;6182688;23;20346;-65
2022/11/20 16:01:19;;;;;;;17.55;10.55;;;;;;;4.57;90.64;97412.22;6132231;23;20096;-66
2022/11/20 16:03:44;;;;;;;32.63;18.55;;;;;;;4.58;90.73;97412.16;6131270;23;20066;-66
2022/11/20 16:06:10;;;;;;;28.15;17.92;;;;;;;4.59;90.65;97411.22;6156887;23;19996;-67
2022/11/20 16:08:36;;;;;;;21.90;13.45;;;;;;;4.61;90.91;97408.53;6156959;23;20066;-66
2022/11/20 16:11:01;;;;;;;21.58;13.60;;;;;;;4.63;90.66;97406.69;6157715;23;20032;-66
2022/11/20 16:16:32;;;;;;;19.55;12.23;;;;;;;4.61;90.80;97408.53;6183848;23;20522;-66
2022/11/20 16:18:57;;;;;;;20.17;10.90;;;;;;;4.61;90.99;97413.72;6156477;23;20005;-66
2022/11/20 16:21:30;;;;;;;17.30;9.70;;;;;;;4.61;91.69;97408.53;6182771;23;20052;-66
2022/11/20 16:23:57;;;;;;;17.15;9.50;;;;;;;4.60;91.12;97407.69;6158291;23;20072;-66
2022/11/20 16:26:22;;;;;;;19.90;10.15;;;;;;;4.59;91.02;97407.81;6157794;23;20028;-66
2022/11/20 16:28:48;;;;;;;16.17;8.40;;;;;;;4.59;91.16;97405.19;6182005;23;20424;-66
2022/11/20 16:31:17;;;;;;;17.38;8.27;;;;;;;4.57;91.17;97396.66;6183483;23;20009;-66
2022/11/20 16:33:42;;;;;;;18.65;9.80;;;;;;;4.56;90.71;97403.59;6156338;23;20587;-66
2022/11/20 16:36:14;;;;;;;22.13;11.13;;;;;;;4.53;90.82;97399.41;6182805;23;20011;-66
2022/11/20 16:38:40;;;;;;;17.80;10.40;;;;;;;4.51;90.29;97397.84;6133202;23;20363;-65
2022/11/20 16:41:05;;;;;;;19.48;12.23;;;;;;;4.51;90.68;97403.88;6183369;23;20487;-66
2022/11/20 16:43:31;;;;;;;21.73;11.75;;;;;;;4.51;90.73;97409.06;6182848;23;20005;-66
2022/11/20 16:45:56;;;;;;;20.05;12.02;;;;;;;4.50;90.49;97399.59;6157388;23;19997;-67
2022/11/20 16:48:22;;;;;;;20.52;11.90;;;;;;;4.48;91.11;97404.06;6155691;23;20016;-66
2022/11/20 16:50:52;;;;;;;25.10;13.77;;;;;;;4.49;91.15;97405.72;6157088;23;20104;-66
2022/11/20 16:53:18;;;;;;;20.90;11.57;;;;;;;4.50;91.77;97401.34;6132399;23;20007;-66
2022/11/20 16:55:43;;;;;;;23.88;14.70;;;;;;;4.49;91.22;97403.13;6132467;23;20083;-66
2022/11/20 16:58:09;;;;;;;26.75;15.90;;;;;;;4.50;91.63;97407.38;6156894;23;20040;-66
2022/11/20 17:00:39;;;;;;;37.70;21.17;;;;;;;4.50;91.28;97414.34;6183027;23;19997;-66
2022/11/20 17:03:05;;;;;;;30.58;17.63;;;;;;;4.49;91.24;97405.72;6107904;23;20008;-66
2022/11/20 17:05:30;;;;;;;32.63;17.70;;;;;;;4.48;91.54;97404.06;6182734;23;19997;-66
2022/11/20 17:07:56;;;;;;;28.77;16.67;;;;;;;4.50;92.18;97407.38;6157409;23;20001;-66
2022/11/20 17:10:21;;;;;;;22.98;13.82;;;;;;;4.50;92.23;97404.78;6132330;23;20009;-66
2022/11/20 17:12:46;;;;;;;23.90;12.68;;;;;;;4.49;92.30;97404.88;6157303;23;20083;-66
2022/11/20 17:15:12;;;;;;;20.80;11.82;;;;;;;4.48;92.66;97398.84;6155154;23;20051;-66
2022/11/20 17:17:37;;;;;;;17.90;9.98;;;;;;;4.48;92.02;97393.66;6184216;23;20011;-67
2022/11/20 17:20:03;;;;;;;25.90;13.40;;;;;;;4.44;91.27;97388.72;6158472;23;20009;-66
2022/11/20 17:22:28;;;;;;;31.75;16.92;;;;;;;4.41;90.95;97392.34;6133409;23;20001;-66
2022/11/20 17:24:53;;;;;;;23.58;13.57;;;;;;;4.40;92.04;97393.25;6183772;23;19997;-66
2022/11/20 17:27:19;;;;;;;19.52;10.63;;;;;;;4.38;91.45;97396.88;6158819;23;20011;-66
2022/11/20 17:29:44;;;;;;;13.73;8.52;;;;;;;4.30;91.08;97389.50;6184590;23;20335;-66
2022/11/20 17:32:10;;;;;;;16.02;8.82;;;;;;;4.27;90.78;97389.69;6158245;23;20007;-66
2022/11/20 17:34:35;;;;;;;15.43;8.30;;;;;;;4.23;90.80;97395.94;6133483;23;20012;-66
2022/11/20 17:37:01;;;;;;;15.70;8.55;;;;;;;4.20;90.52;97393.56;6185008;23;20005;-67
2022/11/20 17:39:26;;;;;;;28.70;13.45;;;;;;;4.13;90.22;97379.22;6184314;23;20015;-66
2022/11/20 17:44:36;;;;;;;46.67;22.70;;;;;;;4.06;90.75;97365.78;6183770;23;20462;-66
2022/11/20 17:47:01;;;;;;;49.53;23.65;;;;;;;4.01;90.18;97365.19;6184740;23;20005;-66
2022/11/20 17:49:26;;;;;;;46.28;23.00;;;;;;;4.00;90.91;97359.16;6184016;23;20001;-66
2022/11/20 17:51:52;;;;;;;50.72;24.15;;;;;;;3.99;91.45;97365.28;6184823;23;20005;-66
2022/11/20 17:54:17;;;;;;;60.47;26.55;;;;;;;3.98;91.96;97360.97;6157779;23;20004;-66
2022/11/20 17:59:26;;;;;;;59.70;27.65;;;;;;;3.94;91.96;97353.47;6183618;23;20063;-66
2022/11/20 18:01:53;;;;;;;33.88;19.08;;;;;;;3.94;91.33;97359.50;6184783;23;20009;-66
2022/11/20 18:04:18;;;;;;;30.48;17.05;;;;;;;3.94;91.82;97356.91;6183294;23;20009;-66
2022/11/20 18:06:44;;;;;;;51.10;25.23;;;;;;;3.92;91.47;97348.38;6158760;23;20445;-66
2022/11/20 18:09:11;;;;;;;52.22;26.17;;;;;;;3.88;91.11;97352.03;6158005;23;20048;-66
2022/11/20 18:11:37;;;;;;;42.85;19.65;;;;;;;3.89;91.75;97342.50;6184684;23;20016;-66
2022/11/20 18:16:51;;;;;;;25.10;12.93;;;;;;;3.89;91.62;97334.72;6161944;23;20075;-66
2022/11/20 18:19:21;;;;;;;23.45;12.85;;;;;;;3.86;91.47;97338.34;6157583;23;20044;-66
2022/11/20 18:21:47;;;;;;;29.17;14.20;;;;;;;3.85;91.86;97326.25;6134299;23;20016;-66
2022/11/20 18:24:12;;;;;;;31.48;16.27;;;;;;;3.85;91.61;97335.81;6157305;23;20001;-66
2022/11/20 18:26:37;;;;;;;30.42;15.82;;;;;;;3.84;91.50;97329.78;6158105;23;20072;-66
2022/11/20 18:29:03;;;;;;;22.27;12.57;;;;;;;3.85;92.08;97331.44;6157655;23;20005;-66
2022/11/20 18:31:28;;;;;;;21.13;11.85;;;;;;;3.85;92.20;97318.47;6158556;23;20004;-66
2022/11/20 18:33:54;;;;;;;22.17;12.88;;;;;;;3.83;91.70;97320.34;6183780;23;20009;-66
2022/11/20 18:36:22;;;;;;;19.25;11.65;;;;;;;3.86;92.16;97316.75;6132358;23;20095;-67
2022/11/20 18:38:48;;;;;;;21.85;12.68;;;;;;;3.83;91.63;97312.56;6157360;23;20004;-67
2022/11/20 18:46:43;;;;;;;20.17;11.52;;;;;;;3.83;91.61;97306.53;6183412;23;20040;-67
2022/11/20 18:49:09;;;;;;;33.55;20.27;;;;;;;3.83;92.02;97307.38;6184075;23;20000;-67
2022/11/20 18:51:35;;;;;;;25.65;16.15;;;;;;;3.83;91.74;97307.38;6158095;23;20005;-67
2022/11/20 18:54:01;;;;;;;28.10;16.30;;;;;;;3.86;91.71;97307.19;6132790;23;20347;-66
2022/11/20 18:56:26;;;;;;;27.30;15.02;;;;;;;3.86;91.95;97296.81;6157322;23;20383;-66